sensor_id;sensor_type;location;lat;lon;timestamp;P1;durP1;ratioP1;P2;durP2;ratioP2
76447;SDS011;65284;51.040;13.722;2023-02-19T00:01:41;4.38;;;1.65;;
76447;SDS011;65284;51.040;13.722;2023-02-19T00:04:13;4.95;;;1.95;;
76447;SDS011;65284;51.040;13.722;2023-02-19T00:06:41;4.50;;;1.70;;
76447;SDS011;65284;51.040;13.722;2023-02-19T00:09:10;3.30;;;1.52;;
76447;SDS011;65284;51.040;13.722;2023-02-19T00:11:38;3.92;;;1.67;;
76447;SDS011;65284;51.040;13.722;2023-02-19T00:14:04;4.13;;;1.77;;
76447;SDS011;65284;51.040;13.722;2023-02-19T00:16:33;5.15;;;1.55;;
76447;SDS011;65284;51.040;13.722;2023-02-19T00:19:05;5.40;;;1.75;;
76447;SDS011;65284;51.040;13.722;2023-02-19T00:21:33;4.43;;;1.50;;
76447;SDS011;65284;51.040;13.722;2023-02-19T00:24:00;4.35;;;1.60;;
76447;SDS011;65284;51.040;13.722;2023-02-19T00:26:28;5.18;;;1.58;;
76447;SDS011;65284;51.040;13.722;2023-02-19T00:28:56;3.90;;;1.40;;
76447;SDS011;65284;51.040;13.722;2023-02-19T00:31:25;4.38;;;1.75;;
76447;SDS011;65284;51.040;13.722;2023-02-19T00:34:00;3.45;;;1.30;;
76447;SDS011;65284;51.040;13.722;2023-02-19T00:36:28;6.05;;;1.77;;
76447;SDS011;65284;51.040;13.722;2023-02-19T00:38:55;4.22;;;1.50;;
76447;SDS011;65284;51.040;13.722;2023-02-19T00:41:22;4.45;;;1.48;;
76447;SDS011;65284;51.040;13.722;2023-02-19T00:43:51;4.95;;;1.90;;
76447;SDS011;65284;51.040;13.722;2023-02-19T00:46:23;4.78;;;1.70;;
76447;SDS011;65284;51.040;13.722;2023-02-19T00:48:52;3.70;;;1.77;;
76447;SDS011;65284;51.040;13.722;2023-02-19T00:51:19;4.05;;;1.70;;
76447;SDS011;65284;51.040;13.722;2023-02-19T00:53:46;4.63;;;1.60;;
76447;SDS011;65284;51.040;13.722;2023-02-19T00:56:13;5.18;;;1.80;;
76447;SDS011;65284;51.040;13.722;2023-02-19T00:58:41;3.75;;;1.80;;
76447;SDS011;65284;51.040;13.722;2023-02-19T01:01:07;3.88;;;1.80;;
76447;SDS011;65284;51.040;13.722;2023-02-19T01:03:35;3.92;;;1.58;;
76447;SDS011;65284;51.040;13.722;2023-02-19T01:06:02;5.47;;;1.77;;
76447;SDS011;65284;51.040;13.722;2023-02-19T01:08:29;4.30;;;1.52;;
76447;SDS011;65284;51.040;13.722;2023-02-19T01:10:56;4.03;;;1.60;;
76447;SDS011;65284;51.040;13.722;2023-02-19T01:13:23;4.15;;;1.60;;
76447;SDS011;65284;51.040;13.722;2023-02-19T01:15:50;3.00;;;1.40;;
76447;SDS011;65284;51.040;13.722;2023-02-19T01:18:16;5.22;;;1.80;;
76447;SDS011;65284;51.040;13.722;2023-02-19T01:20:43;3.85;;;1.50;;
76447;SDS011;65284;51.040;13.722;2023-02-19T01:23:10;6.90;;;1.33;;
76447;SDS011;65284;51.040;13.722;2023-02-19T01:25:38;4.47;;;1.60;;
76447;SDS011;65284;51.040;13.722;2023-02-19T01:28:05;3.80;;;1.55;;
76447;SDS011;65284;51.040;13.722;2023-02-19T01:30:35;3.72;;;1.25;;
76447;SDS011;65284;51.040;13.722;2023-02-19T01:33:03;4.60;;;1.38;;
76447;SDS011;65284;51.040;13.722;2023-02-19T01:35:33;5.50;;;1.70;;
76447;SDS011;65284;51.040;13.722;2023-02-19T01:38:03;3.92;;;1.50;;
76447;SDS011;65284;51.040;13.722;2023-02-19T01:40:29;4.63;;;1.83;;
76447;SDS011;65284;51.040;13.722;2023-02-19T01:42:56;3.42;;;1.60;;
76447;SDS011;65284;51.040;13.722;2023-02-19T01:47:58;4.30;;;1.77;;
76447;SDS011;65284;51.040;13.722;2023-02-19T01:50:30;4.45;;;1.80;;
76447;SDS011;65284;51.040;13.722;2023-02-19T01:53:00;5.57;;;1.60;;
76447;SDS011;65284;51.040;13.722;2023-02-19T01:55:30;5.45;;;1.80;;
76447;SDS011;65284;51.040;13.722;2023-02-19T01:57:58;4.53;;;1.98;;
76447;SDS011;65284;51.040;13.722;2023-02-19T02:00:26;6.03;;;2.00;;
76447;SDS011;65284;51.040;13.722;2023-02-19T02:02:53;5.28;;;2.03;;
76447;SDS011;65284;51.040;13.722;2023-02-19T02:08:06;5.00;;;1.70;;
76447;SDS011;65284;51.040;13.722;2023-02-19T02:10:52;3.97;;;1.70;;
76447;SDS011;65284;51.040;13.722;2023-02-19T02:13:20;3.60;;;1.50;;
76447;SDS011;65284;51.040;13.722;2023-02-19T02:15:49;3.97;;;1.70;;
76447;SDS011;65284;51.040;13.722;2023-02-19T02:21:24;3.20;;;1.30;;
76447;SDS011;65284;51.040;13.722;2023-02-19T02:23:58;3.25;;;1.50;;
76447;SDS011;65284;51.040;13.722;2023-02-19T02:35:20;2.72;;;1.17;;
76447;SDS011;65284;51.040;13.722;2023-02-19T02:37:50;3.40;;;1.10;;
76447;SDS011;65284;51.040;13.722;2023-02-19T02:40:21;2.95;;;1.23;;
76447;SDS011;65284;51.040;13.722;2023-02-19T02:42:48;2.25;;;1.00;;
76447;SDS011;65284;51.040;13.722;2023-02-19T02:50:36;3.65;;;1.20;;
76447;SDS011;65284;51.040;13.722;2023-02-19T02:53:10;2.47;;;1.00;;
76447;SDS011;65284;51.040;13.722;2023-02-19T02:56:01;2.35;;;0.85;;
76447;SDS011;65284;51.040;13.722;2023-02-19T02:58:28;2.03;;;1.00;;
76447;SDS011;65284;51.040;13.722;2023-02-19T03:03:46;2.42;;;0.90;;
76447;SDS011;65284;51.040;13.722;2023-02-19T03:06:18;2.38;;;0.70;;
76447;SDS011;65284;51.040;13.722;2023-02-19T03:08:59;2.83;;;0.90;;
76447;SDS011;65284;51.040;13.722;2023-02-19T03:11:34;2.03;;;0.75;;
76447;SDS011;65284;51.040;13.722;2023-02-19T03:14:24;1.98;;;0.80;;
76447;SDS011;65284;51.040;13.722;2023-02-19T03:17:17;2.45;;;0.93;;
76447;SDS011;65284;51.040;13.722;2023-02-19T03:20:23;2.38;;;0.80;;
76447;SDS011;65284;51.040;13.722;2023-02-19T03:22:50;1.58;;;0.77;;
76447;SDS011;65284;51.040;13.722;2023-02-19T03:25:18;2.05;;;0.73;;
76447;SDS011;65284;51.040;13.722;2023-02-19T03:28:07;1.60;;;0.60;;
76447;SDS011;65284;51.040;13.722;2023-02-19T03:30:39;2.80;;;0.82;;
76447;SDS011;65284;51.040;13.722;2023-02-19T03:33:11;2.17;;;0.70;;
76447;SDS011;65284;51.040;13.722;2023-02-19T03:35:42;2.50;;;0.70;;
76447;SDS011;65284;51.040;13.722;2023-02-19T03:38:19;1.80;;;0.73;;
76447;SDS011;65284;51.040;13.722;2023-02-19T03:41:01;2.15;;;0.73;;
76447;SDS011;65284;51.040;13.722;2023-02-19T03:43:39;2.88;;;0.85;;
76447;SDS011;65284;51.040;13.722;2023-02-19T03:46:14;2.35;;;0.75;;
76447;SDS011;65284;51.040;13.722;2023-02-19T03:48:55;2.05;;;0.80;;
76447;SDS011;65284;51.040;13.722;2023-02-19T03:56:59;1.30;;;0.45;;
76447;SDS011;65284;51.040;13.722;2023-02-19T04:02:34;0.70;;;0.30;;
76447;SDS011;65284;51.040;13.722;2023-02-19T04:05:10;1.13;;;0.50;;
76447;SDS011;65284;51.040;13.722;2023-02-19T04:07:44;1.15;;;0.20;;
76447;SDS011;65284;51.040;13.722;2023-02-19T04:10:13;1.05;;;0.25;;
76447;SDS011;65284;51.040;13.722;2023-02-19T04:12:43;0.30;;;0.10;;
76447;SDS011;65284;51.040;13.722;2023-02-19T04:15:16;0.32;;;0.15;;
76447;SDS011;65284;51.040;13.722;2023-02-19T04:17:55;1.05;;;0.10;;
76447;SDS011;65284;51.040;13.722;2023-02-19T04:20:26;0.60;;;0.20;;
76447;SDS011;65284;51.040;13.722;2023-02-19T04:22:55;0.35;;;0.10;;
76447;SDS011;65284;51.040;13.722;2023-02-19T04:25:22;0.75;;;0.20;;
76447;SDS011;65284;51.040;13.722;2023-02-19T04:27:51;0.40;;;0.10;;
76447;SDS011;65284;51.040;13.722;2023-02-19T04:30:18;0.20;;;0.10;;
76447;SDS011;65284;51.040;13.722;2023-02-19T04:32:44;0.77;;;0.10;;
76447;SDS011;65284;51.040;13.722;2023-02-19T04:35:11;0.50;;;0.15;;
76447;SDS011;65284;51.040;13.722;2023-02-19T04:37:37;0.38;;;0.10;;
76447;SDS011;65284;51.040;13.722;2023-02-19T04:40:04;0.20;;;0.10;;
76447;SDS011;65284;51.040;13.722;2023-02-19T04:42:30;0.40;;;0.15;;
76447;SDS011;65284;51.040;13.722;2023-02-19T04:44:57;0.30;;;0.10;;
76447;SDS011;65284;51.040;13.722;2023-02-19T04:47:23;0.40;;;0.10;;
76447;SDS011;65284;51.040;13.722;2023-02-19T04:49:50;0.43;;;0.10;;
76447;SDS011;65284;51.040;13.722;2023-02-19T04:52:16;0.60;;;0.10;;
76447;SDS011;65284;51.040;13.722;2023-02-19T04:54:43;0.32;;;0.10;;
76447;SDS011;65284;51.040;13.722;2023-02-19T04:57:09;1.88;;;0.20;;
76447;SDS011;65284;51.040;13.722;2023-02-19T04:59:36;0.50;;;0.10;;
76447;SDS011;65284;51.040;13.722;2023-02-19T05:02:02;0.80;;;0.20;;
76447;SDS011;65284;51.040;13.722;2023-02-19T05:04:29;0.60;;;0.20;;
76447;SDS011;65284;51.040;13.722;2023-02-19T05:06:55;2.92;;;0.22;;
76447;SDS011;65284;51.040;13.722;2023-02-19T05:09:22;0.93;;;0.20;;
76447;SDS011;65284;51.040;13.722;2023-02-19T05:11:48;0.93;;;0.43;;
76447;SDS011;65284;51.040;13.722;2023-02-19T05:14:14;2.90;;;0.50;;
76447;SDS011;65284;51.040;13.722;2023-02-19T05:16:42;2.53;;;0.40;;
76447;SDS011;65284;51.040;13.722;2023-02-19T05:19:11;1.55;;;0.40;;
76447;SDS011;65284;51.040;13.722;2023-02-19T05:21:38;1.40;;;0.40;;
76447;SDS011;65284;51.040;13.722;2023-02-19T05:24:05;1.90;;;0.60;;
76447;SDS011;65284;51.040;13.722;2023-02-19T05:26:32;1.52;;;0.50;;
76447;SDS011;65284;51.040;13.722;2023-02-19T05:28:59;2.28;;;0.90;;
76447;SDS011;65284;51.040;13.722;2023-02-19T05:31:26;1.55;;;0.80;;
76447;SDS011;65284;51.040;13.722;2023-02-19T05:33:56;1.23;;;0.60;;
76447;SDS011;65284;51.040;13.722;2023-02-19T05:36:22;3.60;;;0.73;;
76447;SDS011;65284;51.040;13.722;2023-02-19T05:38:52;0.98;;;0.55;;
76447;SDS011;65284;51.040;13.722;2023-02-19T05:41:23;1.15;;;0.60;;
76447;SDS011;65284;51.040;13.722;2023-02-19T05:43:51;1.05;;;0.60;;
76447;SDS011;65284;51.040;13.722;2023-02-19T05:46:20;1.20;;;0.60;;
76447;SDS011;65284;51.040;13.722;2023-02-19T05:48:48;1.20;;;0.47;;
76447;SDS011;65284;51.040;13.722;2023-02-19T05:51:17;1.50;;;0.50;;
76447;SDS011;65284;51.040;13.722;2023-02-19T05:53:45;0.45;;;0.30;;
76447;SDS011;65284;51.040;13.722;2023-02-19T05:58:52;1.88;;;0.30;;
76447;SDS011;65284;51.040;13.722;2023-02-19T06:01:21;0.98;;;0.38;;
76447;SDS011;65284;51.040;13.722;2023-02-19T06:03:49;1.00;;;0.20;;
76447;SDS011;65284;51.040;13.722;2023-02-19T06:06:17;0.63;;;0.32;;
76447;SDS011;65284;51.040;13.722;2023-02-19T06:08:44;1.52;;;0.57;;
76447;SDS011;65284;51.040;13.722;2023-02-19T06:11:12;1.33;;;0.43;;
76447;SDS011;65284;51.040;13.722;2023-02-19T06:13:39;1.20;;;0.43;;
76447;SDS011;65284;51.040;13.722;2023-02-19T06:16:06;1.13;;;0.47;;
76447;SDS011;65284;51.040;13.722;2023-02-19T06:18:34;1.50;;;0.50;;
76447;SDS011;65284;51.040;13.722;2023-02-19T06:21:01;1.17;;;0.40;;
76447;SDS011;65284;51.040;13.722;2023-02-19T06:23:28;1.77;;;0.30;;
76447;SDS011;65284;51.040;13.722;2023-02-19T06:26:05;0.60;;;0.20;;
76447;SDS011;65284;51.040;13.722;2023-02-19T06:28:32;0.68;;;0.30;;
76447;SDS011;65284;51.040;13.722;2023-02-19T06:30:58;0.60;;;0.22;;
76447;SDS011;65284;51.040;13.722;2023-02-19T06:33:25;0.77;;;0.20;;
76447;SDS011;65284;51.040;13.722;2023-02-19T06:35:53;0.35;;;0.15;;
76447;SDS011;65284;51.040;13.722;2023-02-19T06:38:20;1.08;;;0.20;;
76447;SDS011;65284;51.040;13.722;2023-02-19T06:40:47;0.73;;;0.20;;
76447;SDS011;65284;51.040;13.722;2023-02-19T06:43:13;0.63;;;0.20;;
76447;SDS011;65284;51.040;13.722;2023-02-19T06:45:39;0.25;;;0.10;;
76447;SDS011;65284;51.040;13.722;2023-02-19T06:48:06;0.63;;;0.20;;
76447;SDS011;65284;51.040;13.722;2023-02-19T06:50:32;0.60;;;0.20;;
76447;SDS011;65284;51.040;13.722;2023-02-19T06:52:59;0.93;;;0.30;;
76447;SDS011;65284;51.040;13.722;2023-02-19T06:55:25;1.00;;;0.30;;
76447;SDS011;65284;51.040;13.722;2023-02-19T06:57:52;1.33;;;0.50;;
76447;SDS011;65284;51.040;13.722;2023-02-19T07:00:18;2.83;;;0.47;;
76447;SDS011;65284;51.040;13.722;2023-02-19T07:02:45;1.20;;;0.50;;
76447;SDS011;65284;51.040;13.722;2023-02-19T07:05:11;1.80;;;0.60;;
76447;SDS011;65284;51.040;13.722;2023-02-19T07:07:37;2.40;;;0.93;;
76447;SDS011;65284;51.040;13.722;2023-02-19T07:10:04;2.53;;;0.60;;
76447;SDS011;65284;51.040;13.722;2023-02-19T07:12:30;1.48;;;0.63;;
76447;SDS011;65284;51.040;13.722;2023-02-19T07:14:57;2.25;;;0.40;;
76447;SDS011;65284;51.040;13.722;2023-02-19T07:17:23;1.80;;;0.60;;
76447;SDS011;65284;51.040;13.722;2023-02-19T07:19:49;1.70;;;0.80;;
76447;SDS011;65284;51.040;13.722;2023-02-19T07:22:16;1.40;;;0.68;;
76447;SDS011;65284;51.040;13.722;2023-02-19T07:24:44;1.70;;;0.70;;
76447;SDS011;65284;51.040;13.722;2023-02-19T07:27:13;2.80;;;0.80;;
76447;SDS011;65284;51.040;13.722;2023-02-19T07:29:39;1.55;;;0.60;;
76447;SDS011;65284;51.040;13.722;2023-02-19T07:32:06;1.38;;;0.50;;
76447;SDS011;65284;51.040;13.722;2023-02-19T07:34:32;1.65;;;0.60;;
76447;SDS011;65284;51.040;13.722;2023-02-19T07:36:58;3.28;;;0.85;;
76447;SDS011;65284;51.040;13.722;2023-02-19T07:39:25;1.67;;;0.90;;
76447;SDS011;65284;51.040;13.722;2023-02-19T07:41:51;1.65;;;0.70;;
76447;SDS011;65284;51.040;13.722;2023-02-19T07:44:18;1.63;;;0.60;;
76447;SDS011;65284;51.040;13.722;2023-02-19T07:46:44;1.20;;;0.60;;
76447;SDS011;65284;51.040;13.722;2023-02-19T07:49:10;0.80;;;0.40;;
76447;SDS011;65284;51.040;13.722;2023-02-19T07:51:37;1.20;;;0.40;;
76447;SDS011;65284;51.040;13.722;2023-02-19T07:54:04;0.90;;;0.40;;
76447;SDS011;65284;51.040;13.722;2023-02-19T07:56:31;0.85;;;0.40;;
76447;SDS011;65284;51.040;13.722;2023-02-19T07:58:58;1.17;;;0.52;;
76447;SDS011;65284;51.040;13.722;2023-02-19T08:01:25;1.40;;;0.52;;
76447;SDS011;65284;51.040;13.722;2023-02-19T08:04:12;1.10;;;0.60;;
76447;SDS011;65284;51.040;13.722;2023-02-19T08:06:39;2.50;;;0.60;;
76447;SDS011;65284;51.040;13.722;2023-02-19T08:09:06;1.13;;;0.40;;
76447;SDS011;65284;51.040;13.722;2023-02-19T08:11:33;1.77;;;0.50;;
76447;SDS011;65284;51.040;13.722;2023-02-19T08:14:18;1.00;;;0.40;;
76447;SDS011;65284;51.040;13.722;2023-02-19T08:16:49;1.15;;;0.40;;
76447;SDS011;65284;51.040;13.722;2023-02-19T08:19:16;1.40;;;0.60;;
76447;SDS011;65284;51.040;13.722;2023-02-19T08:21:43;3.60;;;1.55;;
76447;SDS011;65284;51.040;13.722;2023-02-19T08:24:09;3.50;;;1.50;;
76447;SDS011;65284;51.040;13.722;2023-02-19T08:26:36;1.83;;;0.60;;
76447;SDS011;65284;51.040;13.722;2023-02-19T08:29:03;1.20;;;0.70;;
76447;SDS011;65284;51.040;13.722;2023-02-19T08:31:31;0.70;;;0.50;;
76447;SDS011;65284;51.040;13.722;2023-02-19T08:33:58;1.48;;;0.65;;
76447;SDS011;65284;51.040;13.722;2023-02-19T08:36:25;2.75;;;0.80;;
76447;SDS011;65284;51.040;13.722;2023-02-19T08:38:51;1.80;;;0.85;;
76447;SDS011;65284;51.040;13.722;2023-02-19T08:41:17;3.42;;;1.23;;
76447;SDS011;65284;51.040;13.722;2023-02-19T08:43:44;2.67;;;1.20;;
76447;SDS011;65284;51.040;13.722;2023-02-19T08:46:10;2.00;;;0.90;;
76447;SDS011;65284;51.040;13.722;2023-02-19T08:48:38;1.80;;;0.80;;
76447;SDS011;65284;51.040;13.722;2023-02-19T08:51:07;3.15;;;0.80;;
76447;SDS011;65284;51.040;13.722;2023-02-19T08:53:36;6.78;;;2.65;;
76447;SDS011;65284;51.040;13.722;2023-02-19T08:56:08;2.72;;;1.20;;
76447;SDS011;65284;51.040;13.722;2023-02-19T08:58:39;1.65;;;0.77;;
76447;SDS011;65284;51.040;13.722;2023-02-19T09:01:09;1.98;;;0.90;;
76447;SDS011;65284;51.040;13.722;2023-02-19T09:03:37;3.80;;;1.48;;
76447;SDS011;65284;51.040;13.722;2023-02-19T09:06:04;5.13;;;1.70;;
76447;SDS011;65284;51.040;13.722;2023-02-19T09:08:30;4.20;;;1.60;;
76447;SDS011;65284;51.040;13.722;2023-02-19T09:11:00;3.20;;;1.60;;
76447;SDS011;65284;51.040;13.722;2023-02-19T09:13:28;4.18;;;1.75;;
76447;SDS011;65284;51.040;13.722;2023-02-19T09:15:55;3.70;;;1.80;;
76447;SDS011;65284;51.040;13.722;2023-02-19T09:18:22;5.30;;;2.15;;
76447;SDS011;65284;51.040;13.722;2023-02-19T09:20:49;4.50;;;2.22;;
76447;SDS011;65284;51.040;13.722;2023-02-19T09:23:16;3.78;;;1.77;;
76447;SDS011;65284;51.040;13.722;2023-02-19T09:25:42;2.90;;;1.33;;
76447;SDS011;65284;51.040;13.722;2023-02-19T09:28:08;2.67;;;1.30;;
76447;SDS011;65284;51.040;13.722;2023-02-19T09:30:35;3.30;;;1.60;;
76447;SDS011;65284;51.040;13.722;2023-02-19T09:33:03;5.22;;;2.25;;
76447;SDS011;65284;51.040;13.722;2023-02-19T09:35:30;4.55;;;1.33;;
76447;SDS011;65284;51.040;13.722;2023-02-19T09:37:58;3.40;;;1.38;;
76447;SDS011;65284;51.040;13.722;2023-02-19T09:40:25;3.10;;;1.20;;
76447;SDS011;65284;51.040;13.722;2023-02-19T09:42:52;3.55;;;1.45;;
76447;SDS011;65284;51.040;13.722;2023-02-19T09:45:20;2.53;;;1.20;;
76447;SDS011;65284;51.040;13.722;2023-02-19T09:47:51;3.10;;;1.55;;
76447;SDS011;65284;51.040;13.722;2023-02-19T09:50:20;4.82;;;1.75;;
76447;SDS011;65284;51.040;13.722;2023-02-19T09:52:53;4.00;;;1.92;;
76447;SDS011;65284;51.040;13.722;2023-02-19T09:55:33;3.20;;;1.50;;
76447;SDS011;65284;51.040;13.722;2023-02-19T09:58:16;2.78;;;1.10;;
76447;SDS011;65284;51.040;13.722;2023-02-19T10:00:50;3.05;;;1.42;;
76447;SDS011;65284;51.040;13.722;2023-02-19T10:03:35;2.10;;;0.90;;
76447;SDS011;65284;51.040;13.722;2023-02-19T10:06:17;1.83;;;0.75;;
76447;SDS011;65284;51.040;13.722;2023-02-19T10:08:47;3.33;;;1.30;;
76447;SDS011;65284;51.040;13.722;2023-02-19T10:11:16;2.67;;;0.88;;
76447;SDS011;65284;51.040;13.722;2023-02-19T10:13:50;3.30;;;1.55;;
76447;SDS011;65284;51.040;13.722;2023-02-19T10:16:26;2.38;;;0.77;;
76447;SDS011;65284;51.040;13.722;2023-02-19T10:18:54;2.20;;;0.60;;
76447;SDS011;65284;51.040;13.722;2023-02-19T10:21:23;2.95;;;0.70;;
76447;SDS011;65284;51.040;13.722;2023-02-19T10:23:54;3.20;;;0.82;;
76447;SDS011;65284;51.040;13.722;2023-02-19T10:26:23;3.33;;;0.98;;
76447;SDS011;65284;51.040;13.722;2023-02-19T10:28:49;1.55;;;0.70;;
76447;SDS011;65284;51.040;13.722;2023-02-19T10:31:17;2.47;;;0.90;;
76447;SDS011;65284;51.040;13.722;2023-02-19T10:33:50;3.05;;;1.00;;
76447;SDS011;65284;51.040;13.722;2023-02-19T10:36:28;2.70;;;0.93;;
76447;SDS011;65284;51.040;13.722;2023-02-19T10:38:58;2.30;;;1.00;;
76447;SDS011;65284;51.040;13.722;2023-02-19T10:41:26;2.53;;;1.30;;
76447;SDS011;65284;51.040;13.722;2023-02-19T10:46:33;2.80;;;0.82;;
76447;SDS011;65284;51.040;13.722;2023-02-19T10:49:06;2.47;;;0.90;;
76447;SDS011;65284;51.040;13.722;2023-02-19T10:51:42;4.13;;;1.00;;
76447;SDS011;65284;51.040;13.722;2023-02-19T10:56:45;5.15;;;1.08;;
76447;SDS011;65284;51.040;13.722;2023-02-19T11:01:57;3.65;;;1.48;;
76447;SDS011;65284;51.040;13.722;2023-02-19T11:04:29;4.18;;;1.20;;
76447;SDS011;65284;51.040;13.722;2023-02-19T11:07:10;4.63;;;1.20;;
76447;SDS011;65284;51.040;13.722;2023-02-19T11:09:42;2.33;;;1.00;;
76447;SDS011;65284;51.040;13.722;2023-02-19T11:12:12;3.70;;;1.48;;
76447;SDS011;65284;51.040;13.722;2023-02-19T11:14:50;1.95;;;0.70;;
76447;SDS011;65284;51.040;13.722;2023-02-19T11:17:24;3.05;;;0.80;;
76447;SDS011;65284;51.040;13.722;2023-02-19T11:19:52;2.97;;;1.10;;
76447;SDS011;65284;51.040;13.722;2023-02-19T11:22:33;3.55;;;0.63;;
76447;SDS011;65284;51.040;13.722;2023-02-19T11:25:05;2.33;;;0.70;;
76447;SDS011;65284;51.040;13.722;2023-02-19T11:27:55;2.03;;;0.60;;
76447;SDS011;65284;51.040;13.722;2023-02-19T11:30:47;2.50;;;0.80;;
76447;SDS011;65284;51.040;13.722;2023-02-19T11:35:50;1.63;;;0.60;;
76447;SDS011;65284;51.040;13.722;2023-02-19T11:38:20;2.38;;;0.75;;
76447;SDS011;65284;51.040;13.722;2023-02-19T11:40:49;2.83;;;0.80;;
76447;SDS011;65284;51.040;13.722;2023-02-19T11:43:37;3.97;;;0.63;;
76447;SDS011;65284;51.040;13.722;2023-02-19T11:46:21;2.38;;;0.57;;
76447;SDS011;65284;51.040;13.722;2023-02-19T11:51:52;1.45;;;0.60;;
76447;SDS011;65284;51.040;13.722;2023-02-19T11:54:52;2.45;;;0.60;;
76447;SDS011;65284;51.040;13.722;2023-02-19T11:57:31;2.38;;;0.80;;
76447;SDS011;65284;51.040;13.722;2023-02-19T12:03:08;3.17;;;1.00;;
76447;SDS011;65284;51.040;13.722;2023-02-19T12:08:30;2.85;;;1.00;;
76447;SDS011;65284;51.040;13.722;2023-02-19T12:14:34;2.60;;;0.80;;
76447;SDS011;65284;51.040;13.722;2023-02-19T12:17:16;3.58;;;0.93;;
76447;SDS011;65284;51.040;13.722;2023-02-19T12:25:48;4.05;;;0.98;;
76447;SDS011;65284;51.040;13.722;2023-02-19T12:28:26;3.65;;;0.70;;
76447;SDS011;65284;51.040;13.722;2023-02-19T12:30:59;3.75;;;0.80;;
76447;SDS011;65284;51.040;13.722;2023-02-19T12:36:16;3.92;;;0.80;;
76447;SDS011;65284;51.040;13.722;2023-02-19T12:38:57;3.22;;;0.65;;
76447;SDS011;65284;51.040;13.722;2023-02-19T12:41:39;3.83;;;0.90;;
76447;SDS011;65284;51.040;13.722;2023-02-19T12:44:15;2.45;;;0.80;;
76447;SDS011;65284;51.040;13.722;2023-02-19T12:46:51;3.28;;;0.70;;
76447;SDS011;65284;51.040;13.722;2023-02-19T12:49:40;3.88;;;0.75;;
76447;SDS011;65284;51.040;13.722;2023-02-19T12:52:20;2.72;;;0.55;;
76447;SDS011;65284;51.040;13.722;2023-02-19T12:54:52;3.17;;;0.50;;
76447;SDS011;65284;51.040;13.722;2023-02-19T12:57:22;1.33;;;0.40;;
76447;SDS011;65284;51.040;13.722;2023-02-19T13:00:03;2.08;;;0.60;;
76447;SDS011;65284;51.040;13.722;2023-02-19T13:03:00;3.28;;;0.60;;
76447;SDS011;65284;51.040;13.722;2023-02-19T13:08:25;3.00;;;0.50;;
76447;SDS011;65284;51.040;13.722;2023-02-19T13:13:43;3.25;;;0.50;;
76447;SDS011;65284;51.040;13.722;2023-02-19T13:16:14;3.25;;;0.45;;
76447;SDS011;65284;51.040;13.722;2023-02-19T13:18:48;4.47;;;1.20;;
76447;SDS011;65284;51.040;13.722;2023-02-19T13:21:18;1.35;;;0.35;;
76447;SDS011;65284;51.040;13.722;2023-02-19T13:24:09;1.30;;;0.52;;
76447;SDS011;65284;51.040;13.722;2023-02-19T13:26:53;2.90;;;0.57;;
76447;SDS011;65284;51.040;13.722;2023-02-19T13:35:23;3.20;;;0.50;;
76447;SDS011;65284;51.040;13.722;2023-02-19T13:37:50;4.22;;;1.88;;
76447;SDS011;65284;51.040;13.722;2023-02-19T13:40:29;4.13;;;1.00;;
76447;SDS011;65284;51.040;13.722;2023-02-19T13:43:02;1.80;;;0.40;;
76447;SDS011;65284;51.040;13.722;2023-02-19T13:45:35;2.83;;;0.65;;
76447;SDS011;65284;51.040;13.722;2023-02-19T13:48:25;2.22;;;0.40;;
76447;SDS011;65284;51.040;13.722;2023-02-19T13:58:58;2.75;;;0.40;;
76447;SDS011;65284;51.040;13.722;2023-02-19T14:14:44;2.88;;;0.60;;
76447;SDS011;65284;51.040;13.722;2023-02-19T14:25:20;3.45;;;0.57;;
76447;SDS011;65284;51.040;13.722;2023-02-19T14:28:00;2.90;;;0.75;;
76447;SDS011;65284;51.040;13.722;2023-02-19T14:30:50;2.60;;;0.70;;
76447;SDS011;65284;51.040;13.722;2023-02-19T14:33:37;5.43;;;0.77;;
76447;SDS011;65284;51.040;13.722;2023-02-19T14:36:19;3.45;;;0.60;;
76447;SDS011;65284;51.040;13.722;2023-02-19T14:38:58;2.15;;;0.47;;
76447;SDS011;65284;51.040;13.722;2023-02-19T14:41:28;1.27;;;0.50;;
76447;SDS011;65284;51.040;13.722;2023-02-19T14:43:59;4.60;;;0.63;;
76447;SDS011;65284;51.040;13.722;2023-02-19T14:46:36;4.07;;;0.73;;
76447;SDS011;65284;51.040;13.722;2023-02-19T14:49:13;2.92;;;0.60;;
76447;SDS011;65284;51.040;13.722;2023-02-19T14:51:51;5.35;;;1.10;;
76447;SDS011;65284;51.040;13.722;2023-02-19T14:54:30;3.35;;;0.65;;
76447;SDS011;65284;51.040;13.722;2023-02-19T14:57:02;2.47;;;0.70;;
76447;SDS011;65284;51.040;13.722;2023-02-19T14:59:30;2.85;;;0.70;;
76447;SDS011;65284;51.040;13.722;2023-02-19T15:02:00;2.03;;;0.60;;
76447;SDS011;65284;51.040;13.722;2023-02-19T15:04:38;4.50;;;0.80;;
76447;SDS011;65284;51.040;13.722;2023-02-19T15:07:06;3.03;;;0.80;;
76447;SDS011;65284;51.040;13.722;2023-02-19T15:09:36;3.30;;;0.93;;
76447;SDS011;65284;51.040;13.722;2023-02-19T15:12:13;2.70;;;0.82;;
76447;SDS011;65284;51.040;13.722;2023-02-19T15:14:42;2.63;;;0.73;;
76447;SDS011;65284;51.040;13.722;2023-02-19T15:17:11;4.07;;;0.90;;
76447;SDS011;65284;51.040;13.722;2023-02-19T15:19:45;3.78;;;1.00;;
76447;SDS011;65284;51.040;13.722;2023-02-19T15:22:14;3.20;;;0.80;;
76447;SDS011;65284;51.040;13.722;2023-02-19T15:24:44;3.10;;;0.73;;
76447;SDS011;65284;51.040;13.722;2023-02-19T15:27:15;4.05;;;0.90;;
76447;SDS011;65284;51.040;13.722;2023-02-19T15:29:48;3.45;;;0.90;;
76447;SDS011;65284;51.040;13.722;2023-02-19T15:32:22;5.07;;;1.17;;
76447;SDS011;65284;51.040;13.722;2023-02-19T15:34:55;2.88;;;1.20;;
76447;SDS011;65284;51.040;13.722;2023-02-19T15:37:24;4.03;;;1.10;;
76447;SDS011;65284;51.040;13.722;2023-02-19T15:42:24;4.53;;;1.45;;
76447;SDS011;65284;51.040;13.722;2023-02-19T15:44:54;4.03;;;1.33;;
76447;SDS011;65284;51.040;13.722;2023-02-19T15:47:39;3.88;;;1.20;;
76447;SDS011;65284;51.040;13.722;2023-02-19T15:50:15;2.85;;;1.10;;
76447;SDS011;65284;51.040;13.722;2023-02-19T15:53:07;4.80;;;1.30;;
76447;SDS011;65284;51.040;13.722;2023-02-19T15:55:40;4.88;;;1.52;;
76447;SDS011;65284;51.040;13.722;2023-02-19T15:58:15;3.75;;;0.93;;
76447;SDS011;65284;51.040;13.722;2023-02-19T16:03:19;3.05;;;1.00;;
76447;SDS011;65284;51.040;13.722;2023-02-19T16:06:03;4.70;;;1.02;;
76447;SDS011;65284;51.040;13.722;2023-02-19T16:08:36;3.22;;;1.08;;
76447;SDS011;65284;51.040;13.722;2023-02-19T16:13:49;4.90;;;1.10;;
76447;SDS011;65284;51.040;13.722;2023-02-19T16:16:19;5.35;;;1.00;;
76447;SDS011;65284;51.040;13.722;2023-02-19T16:18:52;5.15;;;1.10;;
76447;SDS011;65284;51.040;13.722;2023-02-19T16:21:20;4.47;;;1.10;;
76447;SDS011;65284;51.040;13.722;2023-02-19T16:23:48;4.00;;;1.30;;
76447;SDS011;65284;51.040;13.722;2023-02-19T16:26:19;4.82;;;1.10;;
76447;SDS011;65284;51.040;13.722;2023-02-19T16:28:49;5.90;;;1.35;;
76447;SDS011;65284;51.040;13.722;2023-02-19T16:31:17;3.88;;;1.20;;
76447;SDS011;65284;51.040;13.722;2023-02-19T16:33:47;5.38;;;1.60;;
76447;SDS011;65284;51.040;13.722;2023-02-19T16:38:57;14.80;;;5.20;;
76447;SDS011;65284;51.040;13.722;2023-02-19T16:41:24;6.80;;;2.08;;
76447;SDS011;65284;51.040;13.722;2023-02-19T16:43:50;6.72;;;1.60;;
76447;SDS011;65284;51.040;13.722;2023-02-19T16:46:16;5.07;;;1.50;;
76447;SDS011;65284;51.040;13.722;2023-02-19T16:48:43;5.50;;;1.60;;
76447;SDS011;65284;51.040;13.722;2023-02-19T16:51:10;7.03;;;1.80;;
76447;SDS011;65284;51.040;13.722;2023-02-19T16:53:50;5.32;;;1.63;;
76447;SDS011;65284;51.040;13.722;2023-02-19T16:56:17;5.13;;;1.67;;